• Join FlightAware (Why Join?)
  • Login
  • US Flag 
12:33PM EST


 

Airport Tracker/Info


-or-


 

Live Flight TrackerFlight Track Log ✈ N789EX ✈ 27-Mar-2014 ✈ KBFI - KBFI

Flight Track Log - Related Links

Times and Time Zones

All times are in EDT time to prevent confusion due to time zone crossing. See the N789EX flight status page for this flight to view local times or setup timezone preferences in your user account.

Time Position Orientation Groundspeed Altitude Reporting Facility
EDT Latitude Longitude Course Direction KTS MPH feet Rate Location/Type
12:37PM 47.4905 -122.2650 144° Southeast 205 236 2,200  Level FlightAware ADS-B
12:37PM 47.4779 -122.2510 144° Southeast 228 262 2,600 1,860 Climbing FlightAware ADS-B
12:37PM 47.4661 -122.2390 143° Southeast 243 280 3,100 2,520 Climbing FlightAware ADS-B
12:37PM 47.4546 -122.2260 144° Southeast 250 288 3,700 3,240 Climbing FlightAware ADS-B
12:37PM 47.4452 -122.2160 144° Southeast 252 290 4,300 3,180 Climbing FlightAware ADS-B
12:37PM 47.4422 -122.2130 146° Southeast 253 291 4,400 2,520 Climbing FlightAware ADS-B
12:38PM 47.4385 -122.2100 151° Southeast 254 292 4,600 3,420 Climbing FlightAware ADS-B
12:38PM 47.4351 -122.2080 159° South 254 292 4,800 3,960 Climbing FlightAware ADS-B
12:38PM 47.4312 -122.2060 166° South 255 293 5,000 3,420 Climbing FlightAware ADS-B
12:38PM 47.4268 -122.2050 172° South 256 295 5,200 2,400 Climbing FlightAware ADS-B
12:38PM 47.4135 -122.2040 176° South 257 296 5,600 1,740 Climbing FlightAware ADS-B
12:38PM 47.3956 -122.2010 175° South 258 297 6,000 1,500 Climbing FlightAware ADS-B
12:38PM 47.3768 -122.1990 175° South 263 303 6,400 1,980 Climbing FlightAware ADS-B
12:39PM 47.3653 -122.1980 176° South 266 306 6,800 3,000 Climbing FlightAware ADS-B
12:39PM 47.3596 -122.1980 181° South 266 306 7,100 3,000 Climbing FlightAware ADS-B
12:39PM 47.3557 -122.1980 186° South 267 307 7,200 3,000 Climbing FlightAware ADS-B
12:39PM 47.3521 -122.1990 192° South 267 307 7,400 3,420 Climbing FlightAware ADS-B
12:39PM 47.3474 -122.2020 201° Southwest 268 308 7,600 2,640 Climbing FlightAware ADS-B
12:39PM 47.3426 -122.2060 210° Southwest 269 310 7,800 2,220 Climbing FlightAware ADS-B
12:39PM 47.3394 -122.2090 219° Southwest 269 310 7,900 3,000 Climbing FlightAware ADS-B
12:39PM 47.3367 -122.2130 226° Southwest 269 310 8,100 3,600 Climbing FlightAware ADS-B
12:39PM 47.3317 -122.2230 239° Southwest 270 311 8,500 3,240 Climbing FlightAware ADS-B
12:39PM 47.3297 -122.2300 248° West 270 311 8,700 3,420 Climbing FlightAware ADS-B
12:39PM 47.3286 -122.2360 257° West 270 311 8,900 3,420 Climbing FlightAware ADS-B
12:39PM 47.3280 -122.2430 263° West 271 312 9,100 3,000 Climbing FlightAware ADS-B
12:39PM 47.3276 -122.2500 267° West 270 311 9,300 3,420 Climbing FlightAware ADS-B
12:39PM 47.3275 -122.2560 269° West 270 311 9,500 3,960 Climbing FlightAware ADS-B
12:40PM 47.3271 -122.2830 268° West 266 306 10,500 3,480 Climbing FlightAware ADS-B
12:40PM 47.3257 -122.3180 266° West 269 310 11,500 3,000 Climbing FlightAware ADS-B
12:40PM 47.3242 -122.3600 267° West 272 313 12,600 2,760 Climbing FlightAware ADS-B
12:41PM 47.3230 -122.3947 267° West 276 318 13,500 2,580 Climbing FlightAware ADS-B (CYVR)
12:41PM 47.3222 -122.4160 267° West 279 321 13,900 2,460 Climbing FlightAware ADS-B
12:41PM 47.3213 -122.4375 267° West 282 325 14,800 2,700 Climbing FlightAware ADS-B (CYWH)
12:41PM 47.3197 -122.4740 266° West 285 328 15,300 1,920 Climbing FlightAware ADS-B
12:42PM 47.3171 -122.5340 266° West 288 331 16,100 1,200 Climbing FlightAware ADS-B
12:42PM 47.3161 -122.5556 266° West 297 342 16,200 180 Climbing FlightAware ADS-B (CYWH)
12:42PM 47.3140 -122.5990 266° West 328 377 16,200  Level FlightAware ADS-B
12:43PM 47.3130 -122.6212 266° West 348 400 16,200  Level FlightAware ADS-B (CYWH)
12:43PM 47.3107 -122.6720 266° West 358 412 16,200  Level FlightAware ADS-B
12:43PM 47.3096 -122.6990 267° West 361 415 16,200  Level FlightAware ADS-B (CYVR)
12:43PM 47.3079 -122.7450 267° West 361 415 16,200  Level FlightAware ADS-B
12:44PM 47.3061 -122.7895 266° West 360 414 16,200  Level FlightAware ADS-B (CYWH)
12:44PM 47.3035 -122.8170 259° West 360 414 16,200  Level FlightAware ADS-B
12:44PM 47.2998 -122.8360 253° West 361 415 16,200  Level FlightAware ADS-B
12:44PM 47.2986 -122.8420 251° West 360 414 16,200  Level FlightAware ADS-B (CYWH)
12:45PM 47.2810 -122.9100 248° West 360 414 16,200  Level FlightAware ADS-B
12:45PM 47.3084 -122.7303 248° West 359 413 16,200  Level FlightAware ADS-B (CYVR)
12:45PM 47.2622 -122.9780 248° West 360 414 16,200  Level FlightAware ADS-B
12:46PM 47.2437 -123.0480 249° West 360 414 16,200  Level FlightAware ADS-B
12:46PM 47.2678 -122.9580 248° West 360 414 16,200  Level FlightAware ADS-B (CYVR)
12:46PM 47.2256 -123.1170 249° West 360 414 16,200  Level FlightAware ADS-B
12:47PM 47.2077 -123.1850 249° West 354 407 16,200  Level FlightAware ADS-B
12:47PM 47.2091 -123.1794 249° West 347 399 16,200 -1,380 Level FlightAware ADS-B (CYVR)
12:47PM 47.1904 -123.2500 249° West 344 396 15,500 -2,220 Descending FlightAware ADS-B
12:47PM 47.1826 -123.2796 249° West 347 399 14,800 -3,240 Descending FlightAware ADS-B (CYVR)
12:48PM 47.1725 -123.3170 249° West 350 403 13,900 -2,460 Descending FlightAware ADS-B
12:48PM 47.1557 -123.3820 250° West 332 382 12,900 -1,740 Descending FlightAware ADS-B
12:49PM 47.1399 -123.4430 249° West 304 350 12,200 -720 Descending FlightAware ADS-B
12:49PM 47.1257 -123.4960 248° West 263 303 12,200 60 Level FlightAware ADS-B
12:50PM 47.1115 -123.5480 248° West 222 255 12,300  Climbing FlightAware ADS-B
12:50PM 47.1003 -123.5890 248° West 211 243 12,200  Descending FlightAware ADS-B
12:51PM 47.0874 -123.6350 248° West 210 242 12,300 60 Climbing FlightAware ADS-B
12:51PM 47.0755 -123.6760 247° West 210 242 12,300 360 Level FlightAware ADS-B
12:52PM 47.0647 -123.7140 248° West 207 238 12,700 960 Climbing FlightAware ADS-B
12:52PM 47.0550 -123.7570 253° West 222 255 13,300 1,200 Climbing FlightAware ADS-B
12:53PM 47.0448 -123.8020 252° West 239 275 14,000 1,260 Climbing FlightAware ADS-B
12:53PM 47.0318 -123.8580 251° West 274 315 14,700 1,140 Climbing FlightAware ADS-B
12:54PM 47.0204 -123.9120 253° West 275 316 15,200 480 Climbing FlightAware ADS-B
12:54PM 47.0100 -123.9630 253° West 274 315 15,200  Level FlightAware ADS-B
12:55PM 47.0030 -123.9960 252° West 275 316 15,200  Level FlightAware ADS-B
12:55PM 46.9996 -124.0090 246° West 277 319 15,200  Level FlightAware ADS-B
12:55PM 46.9936 -124.0250 238° Southwest 276 318 15,200  Level FlightAware ADS-B
12:55PM 46.9884 -124.0350 233° Southwest 278 320 15,200  Level FlightAware ADS-B
12:55PM 46.9826 -124.0450 227° Southwest 279 321 15,200  Level FlightAware ADS-B
12:55PM 46.9767 -124.0540 223° Southwest 280 322 15,200  Level FlightAware ADS-B
12:55PM 46.9684 -124.0640 217° Southwest 281 323 15,200  Level FlightAware ADS-B
12:56PM 46.9601 -124.0710 211° Southwest 283 326 15,200  Level FlightAware ADS-B
12:56PM 46.9482 -124.0800 204° Southwest 284 327 15,200  Level FlightAware ADS-B
12:56PM 46.9317 -124.0890 196° South 286 329 15,200  Level FlightAware ADS-B
12:56PM 46.9067 -124.0980 196° South 284 327 15,200  Level FlightAware ADS-B
12:56PM 46.8896 -124.1070 201° Southwest 268 308 15,200 240 Level FlightAware ADS-B
12:57PM 46.8598 -124.1250 203° Southwest 226 260 15,400  Climbing FlightAware ADS-B
12:57PM 46.8413 -124.1360 205° Southwest 205 236 15,200 -360 Descending FlightAware ADS-B
12:58PM 46.8303 -124.1450 211° Southwest 195 224 15,200  Level FlightAware ADS-B
12:58PM 46.8176 -124.1570 214° Southwest 201 231 15,200 120 Level FlightAware ADS-B
12:58PM 46.8007 -124.1740 216° Southwest 201 231 15,300 120 Climbing FlightAware ADS-B
12:59PM 46.7797 -124.1970 218° Southwest 202 232 15,300  Level FlightAware ADS-B
12:59PM 46.7659 -124.2130 220° Southwest 202 232 15,300  Level FlightAware ADS-B
12:59PM 46.7607 -124.2200 227° Southwest 200 230 15,300  Level FlightAware ADS-B
12:59PM 46.7591 -124.2240 235° Southwest 198 228 15,300  Level FlightAware ADS-B
12:59PM 46.7574 -124.2280 243° Southwest 195 224 15,300  Level FlightAware ADS-B
12:59PM 46.7566 -124.2330 258° West 191 220 15,300 -1,140 Level FlightAware ADS-B
12:59PM 46.7580 -124.2420 294° West 189 217 15,100 -2,400 Descending FlightAware ADS-B
01:00PM 46.7644 -124.2460 355° North 201 231 14,700 -3,540 Descending FlightAware ADS-B
01:00PM 46.7680 -124.2440 20° North 219 252 14,400 -3,480 Descending FlightAware ADS-B
01:00PM 46.7707 -124.2420 32° Northeast 229 264 14,300 -1,740 Descending FlightAware ADS-B
01:00PM 46.7743 -124.2370 42° Northeast 228 262 14,200 180 Descending FlightAware ADS-B
01:00PM 46.7908 -124.2140 44° Northeast 191 220 14,400 480 Climbing FlightAware ADS-B
01:00PM 46.8051 -124.1940 42° Northeast 195 224 14,600 660 Climbing FlightAware ADS-B
01:01PM 46.8076 -124.1910 37° Northeast 192 221 14,700 1,500 Climbing FlightAware ADS-B
01:01PM 46.8114 -124.1880 28° Northeast 190 219 14,800 1,320 Climbing FlightAware ADS-B
01:01PM 46.8146 -124.1860 22° Northeast 187 215 14,900 720 Climbing FlightAware ADS-B
01:01PM 46.8178 -124.1850 15° North 187 215 14,900 660 Level FlightAware ADS-B
01:01PM 46.8217 -124.1840 North 187 215 15,000 720 Climbing FlightAware ADS-B
01:01PM 46.8244 -124.1840 North 185 213 15,000 960 Level FlightAware ADS-B
01:01PM 46.8271 -124.1840 355° North 184 212 15,100 1,680 Climbing FlightAware ADS-B
01:01PM 46.8306 -124.1850 348° North 181 208 15,200 840 Climbing FlightAware ADS-B
01:01PM 46.8330 -124.1860 342° North 180 207 15,200  Level FlightAware ADS-B
01:01PM 46.8354 -124.1870 337° Northwest 179 206 15,200  Level FlightAware ADS-B
01:01PM 46.8381 -124.1900 328° Northwest 177 204 15,200  Level FlightAware ADS-B
01:01PM 46.8421 -124.1950 315° West 178 205 15,200  Level FlightAware ADS-B
01:01PM 46.8438 -124.1980 307° West 181 208 15,200  Level FlightAware ADS-B
01:01PM 46.8451 -124.2010 300° West 182 209 15,200  Level FlightAware ADS-B
01:01PM 46.8468 -124.2070 290° West 182 209 15,200  Level FlightAware ADS-B
01:02PM 46.8477 -124.2130 281° West 183 211 15,200  Level FlightAware ADS-B
01:02PM 46.8479 -124.2170 274° West 183 211 15,200  Level FlightAware ADS-B
01:02PM 46.8476 -124.2250 263° West 185 213 15,200  Level FlightAware ADS-B
01:02PM 46.8468 -124.2300 256° West 187 215 15,200 480 Level FlightAware ADS-B
01:02PM 46.8442 -124.2390 243° Southwest 191 220 15,300 420 Climbing FlightAware ADS-B
01:02PM 46.8413 -124.2450 234° Southwest 196 226 15,300  Level FlightAware ADS-B
01:02PM 46.8380 -124.2510 226° Southwest 199 229 15,300  Level FlightAware ADS-B
01:02PM 46.8335 -124.2560 218° Southwest 202 232 15,300 -480 Level FlightAware ADS-B
01:02PM 46.8284 -124.2610 211° Southwest 205 236 15,200 -180 Descending FlightAware ADS-B
01:03PM 46.8027 -124.2820 208° Southwest 206 237 15,200  Level FlightAware ADS-B
01:03PM 46.7767 -124.3010 206° Southwest 205 236 15,200  Level FlightAware ADS-B
01:04PM 46.7507 -124.3190 206° Southwest 206 237 15,200  Level FlightAware ADS-B
01:04PM 46.7253 -124.3370 206° Southwest 203 234 15,200  Level FlightAware ADS-B
01:05PM 46.6985 -124.3560 206° Southwest 203 234 15,200  Level FlightAware ADS-B
01:05PM 46.6729 -124.3740 206° Southwest 204 235 15,200 60 Level FlightAware ADS-B
01:06PM 46.6452 -124.3940 206° Southwest 219 252 15,300  Climbing FlightAware ADS-B
01:06PM 46.6153 -124.4160 207° Southwest 240 276 15,200 -120 Descending FlightAware ADS-B
01:07PM 46.5850 -124.4380 207° Southwest 240 276 15,200  Level FlightAware ADS-B
01:08PM 46.5352 -124.4740 207° Southwest 239 275 15,200  Level FlightAware ADS-B
01:09PM 46.4670 -124.5700 1000° North 240 276 15,200  Level FlightAware ADS-B
01:10PM 46.4648 -124.6250 267° West 222 255 15,200  Level FlightAware ADS-B
01:11PM 46.4627 -124.6780 267° West 221 254 15,200  Level FlightAware ADS-B
01:11PM 46.4620 -124.7330 269° West 221 254 15,200  Level FlightAware ADS-B
01:11PM 46.4635 -124.7380 287° West 219 252 15,200 240 Level FlightAware ADS-B
01:12PM 46.4779 -124.7570 331° Northwest 223 257 15,300 180 Climbing FlightAware ADS-B
01:12PM 46.4848 -124.7620 334° Northwest 225 259 15,300 -180 Level FlightAware ADS-B
01:12PM 46.5149 -124.7830 335° Northwest 225 259 15,200 -120 Descending FlightAware ADS-B
01:13PM 46.5362 -124.7960 340° North 226 260 15,200  Level FlightAware ADS-B
01:13PM 46.5424 -124.7980 354° North 229 264 15,200  Level FlightAware ADS-B
01:13PM 46.5467 -124.7980 North 232 267 15,200  Level FlightAware ADS-B
01:13PM 46.5506 -124.7960 13° North 236 272 15,200  Level FlightAware ADS-B
01:13PM 46.5547 -124.7940 20° North 239 275 15,200  Level FlightAware ADS-B
01:13PM 46.5806 -124.7730 37° Northeast 244 281 15,200  Level FlightAware ADS-B
01:14PM 46.5891 -124.7620 43° Northeast 245 282 15,200  Level FlightAware ADS-B
01:14PM 46.6132 -124.7260 46° Northeast 245 282 15,200  Level FlightAware ADS-B
01:15PM 46.6367 -124.6900 47° Northeast 247 284 15,200  Level FlightAware ADS-B
01:15PM 46.6605 -124.6530 47° Northeast 248 285 15,200 60 Level FlightAware ADS-B
01:16PM 46.6856 -124.6140 46° Northeast 280 322 15,300  Climbing FlightAware ADS-B
01:16PM 46.7140 -124.5720 46° Northeast 291 335 15,200 -120 Descending FlightAware ADS-B
01:17PM 46.7411 -124.5310 47° Northeast 288 331 15,200  Level FlightAware ADS-B
01:17PM 46.7445 -124.5250 51° Northeast 289 333 15,200  Level FlightAware ADS-B
01:17PM 46.7483 -124.5160 59° Northeast 290 334 15,200  Level FlightAware ADS-B
01:17PM 46.7514 -124.5050 69° East 294 338 15,200  Level FlightAware ADS-B
01:17PM 46.7537 -124.4940 76° East 295 339 15,200  Level FlightAware ADS-B
01:17PM 46.7556 -124.4790 81° East 298 343 15,200  Level FlightAware ADS-B
01:17PM 46.7562 -124.4570 91° East 300 345 15,200  Level FlightAware ADS-B
01:18PM 46.7512 -124.3970 98° East 301 346 15,200  Level FlightAware ADS-B
01:18PM 46.7496 -124.3840 102° East 301 346 15,200  Level FlightAware ADS-B
01:18PM 46.7481 -124.3770 107° East 301 346 15,200  Level FlightAware ADS-B
01:18PM 46.7433 -124.3620 119° Southeast 301 346 15,200  Level FlightAware ADS-B
01:18PM 46.7365 -124.3490 132° Southeast 299 344 15,200  Level FlightAware ADS-B
01:18PM 46.7325 -124.3430 139° Southeast 298 343 15,200  Level FlightAware ADS-B
01:18PM 46.7255 -124.3360 148° Southeast 296 341 15,200  Level FlightAware ADS-B
01:19PM 46.7107 -124.3260 158° South 294 338 15,200  Level FlightAware ADS-B
01:19PM 46.6719 -124.3060 160° South 293 337 15,200  Level FlightAware ADS-B
01:19PM 46.6590 -124.3000 163° South 293 337 15,200  Level FlightAware ADS-B
01:19PM 46.6500 -124.2970 173° South 290 334 15,200  Level FlightAware ADS-B
01:19PM 46.6420 -124.2980 184° South 287 330 15,200  Level FlightAware ADS-B
01:20PM 46.6333 -124.3010 195° South 284 327 15,200  Level FlightAware ADS-B
01:20PM 46.6090 -124.3150 207° Southwest 283 326 15,200  Level FlightAware ADS-B
01:20PM 46.6038 -124.3200 215° Southwest 280 322 15,200  Level FlightAware ADS-B
01:20PM 46.5927 -124.3370 230° Southwest 274 315 15,200  Level FlightAware ADS-B
01:21PM 46.5432 -124.4380 234° Southwest 273 314 15,200  Level FlightAware ADS-B
01:22PM 46.5238 -124.4880 240° Southwest 273 314 15,200  Level FlightAware ADS-B
01:22PM 46.5035 -124.5410 241° Southwest 272 313 15,200  Level FlightAware ADS-B
01:23PM 46.4846 -124.5890 241° Southwest 271 312 15,200  Level FlightAware ADS-B
01:23PM 46.4661 -124.6370 241° Southwest 271 312 15,200  Level FlightAware ADS-B
01:24PM 46.4468 -124.6870 241° Southwest 271 312 15,200  Level FlightAware ADS-B
01:24PM 46.4279 -124.7350 241° Southwest 271 312 15,200  Level FlightAware ADS-B
01:25PM 46.4082 -124.7860 241° Southwest 270 311 15,200  Level FlightAware ADS-B
01:25PM 46.3894 -124.8340 241° Southwest 270 311 15,200  Level FlightAware ADS-B
01:26PM 46.3705 -124.8830 241° Southwest 270 311 15,200  Level FlightAware ADS-B
01:26PM 46.3518 -124.9310 241° Southwest 271 312 15,200 -180 Level FlightAware ADS-B
01:27PM 46.3300 -124.9842 241° Southwest 271 312 15,000  Descending Seattle Center
01:33PM 46.2336 -124.8940 67° East 301 346 15,200  Climbing FlightAware ADS-B
01:34PM 46.2556 -124.8190 67° East 300 345 15,200  Level FlightAware ADS-B
01:34PM 46.2720 -124.7620 67° East 296 341 15,200  Level FlightAware ADS-B
01:35PM 46.2947 -124.6840 67° East 296 341 15,200  Level FlightAware ADS-B
01:35PM 46.3108 -124.6280 67° East 297 342 15,200  Level FlightAware ADS-B
01:36PM 46.3270 -124.5730 67° East 298 343 15,200  Level FlightAware ADS-B
01:36PM 46.3433 -124.5170 67° East 298 343 15,200  Level FlightAware ADS-B
01:37PM 46.3596 -124.4610 67° East 296 341 15,200  Level FlightAware ADS-B
01:37PM 46.3752 -124.4070 67° East 295 339 15,200  Level FlightAware ADS-B
01:38PM 46.3911 -124.3520 67° East 295 339 15,200  Level FlightAware ADS-B
01:38PM 46.4071 -124.2960 67° East 296 341 15,200  Level FlightAware ADS-B
01:38PM 46.4077 -124.2940 67° East 296 341 15,200  Level FlightAware ADS-B
01:39PM 46.4232 -124.2410 67° East 296 341 15,200  Level FlightAware ADS-B
01:39PM 46.4393 -124.1860 67° East 297 342 15,200  Level FlightAware ADS-B
01:40PM 46.4525 -124.1415 67° East 297 342 15,200  Level FlightAware ADS-B
01:40PM 46.4558 -124.1300 67° East 297 342 15,200  Level FlightAware ADS-B
01:40PM 46.4721 -124.0750 67° East 295 339 15,200  Level FlightAware ADS-B
01:41PM 46.4736 -124.0696 67° East 295 339 15,200  Level FlightAware ADS-B
01:41PM 46.4808 -124.0440 68° East 294 338 15,200  Level FlightAware ADS-B
01:41PM 46.4832 -124.0340 72° East 296 341 15,200  Level FlightAware ADS-B
01:41PM 46.4869 -124.0140 75° East 295 339 15,200  Level FlightAware ADS-B
01:41PM 46.4889 -124.0050 70° East 294 338 15,200  Level FlightAware ADS-B
01:41PM 46.4917 -123.9970 62° Northeast 291 335 15,200  Level FlightAware ADS-B
01:41PM 46.4940 -123.9920 57° Northeast 290 334 15,200  Level FlightAware ADS-B
01:41PM 46.4940 -123.9916 51° Northeast 288 331 15,200  Level FlightAware ADS-B
01:41PM 46.4970 -123.9860 49° Northeast 287 330 15,200  Level FlightAware ADS-B
01:41PM 46.5008 -123.9810 41° Northeast 282 325 15,200 -720 Level FlightAware ADS-B
01:41PM 46.5061 -123.9760 33° Northeast 278 320 15,100 -1,380 Descending FlightAware ADS-B
01:41PM 46.5109 -123.9720 23° Northeast 274 315 15,000 -1,740 Descending FlightAware ADS-B
01:42PM 46.5145 -123.9710 16° North 272 313 14,900 -2,280 Descending FlightAware ADS-B
01:42PM 46.5197 -123.9690 North 271 312 14,700 -3,000 Descending FlightAware ADS-B
01:42PM 46.5247 -123.9690 360° North 270 311 14,500 -2,580 Descending FlightAware ADS-B
01:42PM 46.5289 -123.9700 354° North 270 311 14,400 -1,740 Descending FlightAware ADS-B
01:42PM 46.5331 -123.9710 348° North 268 308 14,300 -780 Descending FlightAware ADS-B
01:42PM 46.5391 -123.9740 342° North 262 302 14,300 420 Level FlightAware ADS-B
01:42PM 46.5476 -123.9790 336° Northwest 250 288 14,400 360 Climbing FlightAware ADS-B
01:42PM 46.5555 -123.9840 331° Northwest 241 277 14,400 360 Level FlightAware ADS-B
01:42PM 46.5626 -123.9910 326° Northwest 230 265 14,500 300 Climbing FlightAware ADS-B
01:42PM 46.5699 -123.9990 319° Northwest 215 247 14,500  Level FlightAware ADS-B
01:43PM 46.5811 -124.0160 313° West 183 211 14,500  Level FlightAware ADS-B
01:43PM 46.5871 -124.0250 311° West 173 199 14,500  Level FlightAware ADS-B
01:43PM 46.5968 -124.0430 308° West 154 177 14,500 -180 Level FlightAware ADS-B
01:43PM 46.6030 -124.0550 305° West 147 169 14,400 -180 Descending FlightAware ADS-B
01:44PM 46.6128 -124.0770 302° West 152 175 14,400  Level FlightAware ADS-B
01:44PM 46.6227 -124.1000 302° West 149 171 14,400  Level FlightAware ADS-B
01:45PM 46.6317 -124.1200 304° West 149 171 14,400 60 Level FlightAware ADS-B
01:45PM 46.6436 -124.1460 305° West 148 170 14,500 180 Climbing FlightAware ADS-B
01:46PM 46.6537 -124.1660 305° West 167 192 14,600 600 Climbing FlightAware ADS-B
01:46PM 46.6669 -124.1950 304° West 157 181 15,100 600 Climbing FlightAware ADS-B
01:46PM 46.6736 -124.2100 302° West 160 184 15,100 180 Level FlightAware ADS-B
01:47PM 46.6801 -124.2240 303° West 163 188 15,200 480 Climbing FlightAware ADS-B
01:47PM 46.6880 -124.2430 301° West 156 180 15,400 660 Climbing FlightAware ADS-B
01:47PM 46.6931 -124.2550 301° West 152 175 15,600 480 Climbing FlightAware ADS-B
01:48PM 46.7042 -124.2820 301° West 154 177 15,800 240 Climbing FlightAware ADS-B
01:48PM 46.7101 -124.2970 299° West 152 175 15,800 -180 Level FlightAware ADS-B
01:49PM 46.7195 -124.3220 299° West 154 177 15,700 -300 Descending FlightAware ADS-B
01:49PM 46.7266 -124.3400 300° West 152 175 15,600 -180 Descending FlightAware ADS-B
01:49PM 46.7329 -124.3560 301° West 152 175 15,600 120 Level FlightAware ADS-B
01:50PM 46.7432 -124.3790 303° West 152 175 15,700 120 Climbing FlightAware ADS-B
01:50PM 46.7500 -124.3940 305° West 151 174 15,700  Level FlightAware ADS-B
01:50PM 46.7555 -124.4050 304° West 152 175 15,700 420 Level FlightAware ADS-B
01:51PM 46.7670 -124.4310 303° West 174 200 16,000 1,080 Climbing FlightAware ADS-B
01:51PM 46.7806 -124.4610 303° West 178 205 16,800 1,140 Climbing FlightAware ADS-B
01:52PM 46.7925 -124.4870 303° West 170 196 17,100 -120 Climbing FlightAware ADS-B
01:52PM 46.8056 -124.5170 303° West 188 216 16,700 -900 Descending FlightAware ADS-B
01:53PM 46.8209 -124.5500 304° West 195 224 16,200 -1,320 Descending FlightAware ADS-B
01:53PM 46.8339 -124.5780 304° West 197 227 15,400 -1,140 Descending FlightAware ADS-B
01:53PM 46.8485 -124.6090 302° West 199 229 15,200 -420 Descending FlightAware ADS-B
01:54PM 46.8517 -124.6190 291° West 199 229 15,200  Level FlightAware ADS-B
01:54PM 46.8525 -124.6270 278° West 199 229 15,200  Level FlightAware ADS-B
01:54PM 46.8519 -124.6330 261° West 200 230 15,200  Level FlightAware ADS-B
01:54PM 46.8504 -124.6400 249° West 202 232 15,200  Level FlightAware ADS-B
01:54PM 46.8482 -124.6450 235° Southwest 206 237 15,200  Level FlightAware ADS-B
01:54PM 46.8441 -124.6510 221° Southwest 210 242 15,200  Level FlightAware ADS-B
01:54PM 46.8386 -124.6550 206° Southwest 215 247 15,200  Level FlightAware ADS-B
01:54PM 46.8322 -124.6590 199° South 217 250 15,200  Level FlightAware ADS-B
01:55PM 46.8144 -124.6670 197° South 213 245 15,200 -540 Level FlightAware ADS-B
01:55PM 46.7805 -124.6830 197° South 193 222 14,700 -1,080 Descending FlightAware ADS-B
01:56PM 46.7507 -124.6960 196° South 186 214 13,900 -1,320 Descending FlightAware ADS-B
01:57PM 46.7082 -124.7210 202° Southwest 180 207 12,700 -1,320 Descending FlightAware ADS-B
01:57PM 46.7035 -124.7270 232° Southwest 165 190 12,500 -1,680 Descending FlightAware ADS-B
01:57PM 46.7018 -124.7410 257° West 161 185 12,100 -1,860 Descending FlightAware ADS-B
01:57PM 46.6993 -124.7620 284° West 164 189 11,500 -1,860 Descending FlightAware ADS-B
01:58PM 46.6908 -124.7830 261° West 171 197 10,800 300 Descending FlightAware ADS-B
02:00PM 46.6284 -124.8670 191° South 204 235 12,300 780 Climbing FlightAware ADS-B
02:00PM 46.6121 -124.8550 160° South 234 269 12,700 1,380 Climbing FlightAware ADS-B
02:00PM 46.6031 -124.8440 143° Southeast 255 293 12,900 900 Climbing FlightAware ADS-B
02:00PM 46.6005 -124.8390 130° Southeast 272 313 12,900 1,620 Level FlightAware ADS-B
02:01PM 46.5888 -124.8080 120° Southeast 281 323 13,500 1,920 Climbing FlightAware ADS-B
02:01PM 46.5870 -124.7970 103° East 294 338 13,700 1,260 Climbing FlightAware ADS-B
02:01PM 46.5856 -124.7810 95° East 300 345 13,800 780 Climbing FlightAware ADS-B
02:01PM 46.5854 -124.7680 89° East 305 351 13,900 1,560 Climbing FlightAware ADS-B
02:01PM 46.5868 -124.7510 80° East 306 352 14,200 1,980 Climbing FlightAware ADS-B
02:01PM 46.5912 -124.7310 70° East 307 353 14,500 1,380 Climbing FlightAware ADS-B
02:02PM 46.6088 -124.6710 67° East 306 352 15,200 600 Climbing FlightAware ADS-B
02:02PM 46.6267 -124.6100 67° East 306 352 15,200  Level FlightAware ADS-B
02:03PM 46.6439 -124.5520 67° East 306 352 15,200  Level FlightAware ADS-B
02:03PM 46.6583 -124.5030 66° East 306 352 15,200  Level FlightAware ADS-B
02:03PM 46.6628 -124.4920 59° Northeast 304 350 15,200  Level FlightAware ADS-B
02:04PM 46.6716 -124.4760 48° Northeast 302 348 15,200  Level FlightAware ADS-B
02:04PM 46.7021 -124.4340 42° Northeast 301 346 15,200  Level FlightAware ADS-B
02:05PM 46.7335 -124.3920 42° Northeast 301 346 15,200  Level FlightAware ADS-B
02:05PM 46.7608 -124.3560 42° Northeast 299 344 15,200  Level FlightAware ADS-B
02:05PM 46.7661 -124.3500 38° Northeast 298 343 15,200  Level FlightAware ADS-B
02:05PM 46.7715 -124.3450 33° Northeast 296 341 15,200  Level FlightAware ADS-B
02:05PM 46.7779 -124.3400 24° Northeast 293 337 15,200  Level FlightAware ADS-B
02:05PM 46.7843 -124.3380 14° North 290 334 15,200  Level FlightAware ADS-B
02:05PM 46.7910 -124.3370 North 287 330 15,200  Level FlightAware ADS-B
02:06PM 46.7960 -124.3370 353° North 284 327 15,200  Level FlightAware ADS-B
02:06PM 46.8026 -124.3400 344° North 283 326 15,200  Level FlightAware ADS-B
02:06PM 46.8172 -124.3480 338° Northwest 283 326 15,200  Level FlightAware ADS-B
02:06PM 46.8469 -124.3620 343° North 285 328 15,200  Level FlightAware ADS-B
02:07PM 46.8836 -124.3790 342° North 284 327 15,200  Level FlightAware ADS-B
02:07PM 46.8948 -124.3850 338° Northwest 279 321 15,200  Level FlightAware ADS-B
02:07PM 46.9003 -124.3890 330° Northwest 276 318 15,200  Level FlightAware ADS-B
02:07PM 46.9038 -124.3930 324° Northwest 276 318 15,200  Level FlightAware ADS-B
02:07PM 46.9070 -124.3970 316° Northwest 276 318 15,200  Level FlightAware ADS-B
02:07PM 46.9114 -124.4050 307° West 276 318 15,200  Level FlightAware ADS-B
02:07PM 46.9141 -124.4120 297° West 277 319 15,200  Level FlightAware ADS-B
02:07PM 46.9162 -124.4220 286° West 278 320 15,200  Level FlightAware ADS-B
02:07PM 46.9177 -124.4340 278° West 280 322 15,200  Level FlightAware ADS-B
02:08PM 46.9207 -124.4910 274° West 279 321 15,200  Level FlightAware ADS-B
02:08PM 46.9226 -124.5320 271° West 280 322 15,200  Level FlightAware ADS-B
02:08PM 46.9218 -124.5530 265° West 282 325 15,200  Level FlightAware ADS-B
02:09PM 46.9163 -124.6110 261° West 282 325 15,200  Level FlightAware ADS-B
02:10PM 46.9102 -124.6690 261° West 283 326 15,200  Level FlightAware ADS-B
02:10PM 46.9041 -124.7270 261° West 284 327 15,200  Level FlightAware ADS-B
02:10PM 46.9007 -124.7580 260° West 282 325 15,200  Level FlightAware ADS-B
02:10PM 46.8982 -124.7720 254° West 281 323 15,200  Level FlightAware ADS-B
02:11PM 46.8927 -124.7870 237° Southwest 283 326 15,200  Level FlightAware ADS-B
02:11PM 46.8871 -124.7960 227° Southwest 285 328 15,200  Level FlightAware ADS-B
02:11PM 46.8816 -124.8020 214° Southwest 288 331 15,200  Level FlightAware ADS-B
02:11PM 46.8768 -124.8050 204° Southwest 292 336 15,200  Level FlightAware ADS-B
02:11PM 46.8654 -124.8090 192° South 296 341 15,200  Level FlightAware ADS-B
02:11PM 46.8241 -124.8180 188° South 288 331 15,200  Level FlightAware ADS-B
02:12PM 46.7794 -124.8270 188° South 267 307 15,200  Level FlightAware ADS-B
02:12PM 46.7582 -124.8290 175° South 251 289 15,200  Level FlightAware ADS-B
02:13PM 46.7401 -124.8240 166° South 259 298 15,200  Level FlightAware ADS-B
02:13PM 46.7201 -124.8160 164° South 257 296 15,200  Level FlightAware ADS-B
02:13PM 46.6857 -124.8010 164° South 255 293 15,200  Level FlightAware ADS-B
02:14PM 46.6660 -124.7920 159° South 255 293 15,200  Level FlightAware ADS-B
02:14PM 46.6520 -124.7820 149° Southeast 256 295 15,200  Level FlightAware ADS-B
02:14PM 46.6405 -124.7710 146° Southeast 257 296 15,200  Level FlightAware ADS-B
02:14PM 46.6245 -124.7540 144° Southeast 257 296 15,200  Level FlightAware ADS-B
02:15PM 46.5956 -124.7230 144° Southeast 258 297 15,200  Level FlightAware ADS-B
02:15PM 46.5667 -124.6920 143° Southeast 258 297 15,200  Level FlightAware ADS-B
02:16PM 46.5386 -124.6590 143° Southeast 258 297 15,200  Level FlightAware ADS-B
02:16PM 46.5363 -124.6540 128° Southeast 258 297 15,200  Level FlightAware ADS-B
02:16PM 46.5322 -124.6460 124° Southeast 258 297 15,200  Level FlightAware ADS-B
02:16PM 46.5194 -124.6160 121° Southeast 259 298 15,200  Level FlightAware ADS-B
02:17PM 46.5054 -124.5810 120° Southeast 259 298 15,200  Level FlightAware ADS-B
02:18PM 46.4766 -124.5070 119° Southeast 260 299 15,200  Level FlightAware ADS-B
02:18PM 46.4647 -124.4760 117° Southeast 261 300 15,200  Level FlightAware ADS-B
02:18PM 46.4623 -124.4670 110° East 260 299 15,200  Level FlightAware ADS-B
02:18PM 46.4613 -124.4610 104° East 260 299 15,200  Level FlightAware ADS-B
02:18PM 46.4593 -124.4430 96° East 260 299 15,200  Level FlightAware ADS-B
02:19PM 46.4570 -124.3900 93° East 260 299 15,200  Level FlightAware ADS-B
02:19PM 46.4552 -124.3360 93° East 261 300 15,200  Level FlightAware ADS-B
02:20PM 46.4537 -124.2890 92° East 261 300 15,200  Level FlightAware ADS-B
02:20PM 46.4532 -124.2710 92° East 261 300 15,200  Level FlightAware ADS-B
02:20PM 46.4534 -124.2610 86° East 260 299 15,200  Level FlightAware ADS-B
02:20PM 46.4540 -124.2560 80° East 259 298 15,200  Level FlightAware ADS-B
02:20PM 46.4552 -124.2490 72° East 256 295 15,200  Level FlightAware ADS-B
02:20PM 46.4567 -124.2440 65° Northeast 254 292 15,200 -720 Level FlightAware ADS-B
02:20PM 46.4599 -124.2370 54° Northeast 250 288 15,100 -600 Descending FlightAware ADS-B
02:20PM 46.4642 -124.2300 45° Northeast 247 284 15,100 -180 Level FlightAware ADS-B
02:21PM 46.4906 -124.2020 36° Northeast 245 282 15,000  Descending FlightAware ADS-B
02:21PM 46.5016 -124.1900 34° Northeast 244 281 15,100 300 Climbing FlightAware ADS-B
02:21PM 46.5064 -124.1860 30° Northeast 241 277 15,100  Level FlightAware ADS-B
02:21PM 46.5182 -124.1780 24° Northeast 237 273 15,100 120 Level FlightAware ADS-B
02:22PM 46.5446 -124.1630 20° North 233 268 15,200 180 Climbing FlightAware ADS-B
02:22PM 46.5747 -124.1470 20° North 230 265 15,300 180 Climbing FlightAware ADS-B
02:23PM 46.6013 -124.1330 20° North 227 261 15,400 120 Climbing FlightAware ADS-B
02:23PM 46.6099 -124.1290 14° North 225 259 15,400  Level FlightAware ADS-B
02:23PM 46.6175 -124.1280 North 220 253 15,400  Level FlightAware ADS-B
02:23PM 46.6209 -124.1280 359° North 219 252 15,400 360 Level FlightAware ADS-B
02:23PM 46.6329 -124.1300 351° North 216 249 15,500 240 Climbing FlightAware ADS-B
02:24PM 46.6672 -124.1390 349° North 216 249 15,600 180 Climbing FlightAware ADS-B
02:24PM 46.6972 -124.1470 349° North 215 247 15,700 240 Climbing FlightAware ADS-B
02:25PM 46.7167 -124.1530 349° North 215 247 15,800 120 Climbing FlightAware ADS-B
02:25PM 46.7375 -124.1590 349° North 215 247 15,800 60 Level FlightAware ADS-B
02:26PM 46.7666 -124.1670 349° North 213 245 15,900 180 Climbing FlightAware ADS-B
02:26PM 46.7959 -124.1760 348° North 213 245 16,000 240 Climbing FlightAware ADS-B
02:26PM 46.8137 -124.1810 348° North 214 246 16,100 300 Climbing FlightAware ADS-B
02:27PM 46.8344 -124.1880 348° North 214 246 16,200 120 Climbing FlightAware ADS-B
02:27PM 46.8526 -124.1930 348° North 214 246 16,200  Level FlightAware ADS-B
02:28PM 46.8823 -124.2020 349° North 217 250 16,200  Level FlightAware ADS-B
02:28PM 46.9121 -124.2110 348° North 218 251 16,200  Level FlightAware ADS-B
02:29PM 46.9424 -124.2200 348° North 220 253 16,200  Level FlightAware ADS-B
02:29PM 46.9727 -124.2290 348° North 221 254 16,200  Level FlightAware ADS-B
02:29PM 46.9818 -124.2320 347° North 220 253 16,200  Level FlightAware ADS-B
02:29PM 46.9859 -124.2340 342° North 219 252 16,200  Level FlightAware ADS-B
02:29PM 46.9905 -124.2370 332° Northwest 217 250 16,200  Level FlightAware ADS-B
02:29PM 46.9937 -124.2400 324° Northwest 215 247 16,200  Level FlightAware ADS-B
02:30PM 46.9971 -124.2460 308° West 212 244 16,200  Level FlightAware ADS-B
02:30PM 46.9994 -124.2520 297° West 211 243 16,200  Level FlightAware ADS-B
02:30PM 47.0005 -124.2590 280° West 210 242 16,200  Level FlightAware ADS-B
02:30PM 47.0005 -124.2650 269° West 210 242 16,200  Level FlightAware ADS-B
02:30PM 46.9997 -124.2720 258° West 212 244 16,200  Level FlightAware ADS-B
02:30PM 46.9983 -124.2790 252° West 213 245 16,200  Level FlightAware ADS-B
02:30PM 46.9863 -124.3210 247° West 217 250 16,200  Level FlightAware ADS-B
02:31PM 46.9743 -124.3620 247° West 218 251 16,200  Level FlightAware ADS-B
02:31PM 46.9626 -124.4030 248° West 220 253 16,200  Level FlightAware ADS-B
02:32PM 46.9506 -124.4450 248° West 221 254 16,200  Level FlightAware ADS-B
02:32PM 46.9495 -124.4493 248° West 221 254 16,200  Level FlightAware ADS-B (CYVR)
02:32PM 46.9387 -124.4880 248° West 220 253 16,200  Level FlightAware ADS-B
02:33PM 46.9272 -124.5300 248° West 220 253 16,200  Level FlightAware ADS-B
02:34PM 46.9153 -124.5720 247° West 221 254 16,200  Level FlightAware ADS-B
02:34PM 46.9031 -124.6150 248° West 222 255 16,200  Level FlightAware ADS-B
02:35PM 46.8912 -124.6570 248° West 222 255 16,200  Level FlightAware ADS-B
02:35PM 46.8796 -124.6990 248° West 222 255 16,200  Level FlightAware ADS-B
02:36PM 46.8663 -124.7470 248° West 222 255 16,200  Level FlightAware ADS-B
02:36PM 46.8543 -124.7890 247° West 221 254 16,200  Level FlightAware ADS-B
02:37PM 46.8423 -124.8320 248° West 221 254 16,200  Level FlightAware ADS-B
02:37PM 46.8288 -124.8790 248° West 221 254 16,200  Level FlightAware ADS-B
02:38PM 46.8138 -124.9330 248° West 220 253 16,200  Level FlightAware ADS-B
02:38PM 46.8077 -124.9470 233° Southwest 224 258 16,200  Level FlightAware ADS-B
02:38PM 46.8046 -124.9510 221° Southwest 227 261 16,200  Level FlightAware ADS-B
02:38PM 46.8002 -124.9540 208° Southwest 230 265 16,200  Level FlightAware ADS-B
02:38PM 46.7952 -124.9570 195° South 232 267 16,200  Level FlightAware ADS-B
02:38PM 46.7904 -124.9570 182° South 235 270 16,200  Level FlightAware ADS-B
02:38PM 46.7858 -124.9570 172° South 237 273 16,200  Level FlightAware ADS-B
02:39PM 46.7803 -124.9540 159° South 239 275 16,200  Level FlightAware ADS-B
02:39PM 46.7757 -124.9500 147° Southeast 241 277 16,200  Level FlightAware ADS-B
02:39PM 46.7704 -124.9430 132° Southeast 241 277 16,200  Level FlightAware ADS-B
02:39PM 46.7630 -124.9040 96° East 242 278 16,200  Level FlightAware ADS-B
02:40PM 46.7595 -124.8520 95° East 244 281 16,200  Level FlightAware ADS-B
02:40PM 46.7571 -124.8190 98° East 247 284 16,200  Level FlightAware ADS-B
02:40PM 46.7487 -124.7920 123° Southeast 249 287 16,200  Level FlightAware ADS-B
02:41PM 46.7265 -124.7520 130° Southeast 249 287 16,200  Level FlightAware ADS-B
02:41PM 46.7048 -124.7150 130° Southeast 249 287 16,200  Level FlightAware ADS-B
02:42PM 46.6824 -124.6760 130° Southeast 250 288 16,200  Level FlightAware ADS-B
02:42PM 46.6597 -124.6370 130° Southeast 251 289 16,200  Level FlightAware ADS-B
02:43PM 46.6370 -124.5970 130° Southeast 251 289 16,200  Level FlightAware ADS-B
02:43PM 46.6144 -124.5590 130° Southeast 251 289 16,200  Level FlightAware ADS-B
02:44PM 46.5909 -124.5180 130° Southeast 252 290 16,200  Level FlightAware ADS-B
02:44PM 46.5676 -124.4790 130° Southeast 252 290 16,200  Level FlightAware ADS-B
02:45PM 46.5443 -124.4390 130° Southeast 253 291 16,200  Level FlightAware ADS-B
02:46PM 46.5103 -124.3810 130° Southeast 253 291 16,200  Level FlightAware ADS-B
02:46PM 46.5041 -124.3690 127° Southeast 254 292 16,200  Level FlightAware ADS-B
02:46PM 46.4996 -124.3560 110° East 253 291 16,200  Level FlightAware ADS-B
02:46PM 46.4986 -124.3470 99° East 251 289 16,200  Level FlightAware ADS-B
02:46PM 46.5096 -124.3140 85° East 247 284 16,200  Level FlightAware ADS-B
02:46PM 46.5126 -124.3110 34° Northeast 228 262 16,200  Level FlightAware ADS-B
02:46PM 46.5155 -124.3100 21° North 224 258 16,200  Level FlightAware ADS-B
02:47PM 46.5201 -124.3080 10° North 219 252 16,200  Level FlightAware ADS-B
02:47PM 46.5271 -124.3090 357° North 215 247 16,200  Level FlightAware ADS-B
02:47PM 46.5345 -124.3100 349° North 215 247 16,200  Level FlightAware ADS-B
02:47PM 46.5524 -124.3200 336° Northwest 214 246 16,200  Level FlightAware ADS-B
02:48PM 46.5829 -124.3420 334° Northwest 216 249 16,200  Level FlightAware ADS-B
02:48PM 46.6111 -124.3610 335° Northwest 218 251 16,200  Level FlightAware ADS-B
02:49PM 46.6389 -124.3800 335° Northwest 219 252 16,200  Level FlightAware ADS-B
02:49PM 46.6665 -124.3990 335° Northwest 220 253 16,200  Level FlightAware ADS-B
02:50PM 46.6947 -124.4180 335° Northwest 221 254 16,200  Level FlightAware ADS-B
02:50PM 46.7228 -124.4370 335° Northwest 222 255 16,200  Level FlightAware ADS-B
02:51PM 46.7508 -124.4560 335° Northwest 221 254 16,200  Level FlightAware ADS-B
02:51PM 46.7750 -124.4730 335° Northwest 221 254 16,200  Level FlightAware ADS-B
02:52PM 46.8028 -124.4920 335° Northwest 221 254 16,200  Level FlightAware ADS-B
02:52PM 46.8309 -124.5100 335° Northwest 221 254 16,200  Level FlightAware ADS-B
02:53PM 46.8587 -124.5290 335° Northwest 221 254 16,200  Level FlightAware ADS-B
02:53PM 46.8868 -124.5480 335° Northwest 221 254 16,200  Level FlightAware ADS-B
02:54PM 46.9156 -124.5670 335° Northwest 221 254 16,200  Level FlightAware ADS-B
02:54PM 46.9258 -124.5740 333° Northwest 221 254 16,200  Level FlightAware ADS-B
02:54PM 46.9296 -124.5770 326° Northwest 220 253 16,200  Level FlightAware ADS-B
02:54PM 46.9331 -124.5820 318° Northwest 219 252 16,200  Level FlightAware ADS-B
02:54PM 46.9354 -124.5860 310° West 219 252 16,200  Level FlightAware ADS-B
02:54PM 46.9379 -124.5930 297° West 222 255 16,200  Level FlightAware ADS-B
02:54PM 46.9389 -124.5970 287° West 227 261 16,200  Level FlightAware ADS-B
02:54PM 46.9395 -124.6030 276° West 231 266 16,200  Level FlightAware ADS-B
02:54PM 46.9392 -124.6110 266° West 235 270 16,200  Level FlightAware ADS-B
02:54PM 46.9368 -124.6230 251° West 241 277 16,200  Level FlightAware ADS-B
02:55PM 46.9228 -124.6700 247° West 245 282 16,200  Level FlightAware ADS-B
02:55PM 46.9101 -124.7130 246° West 245 282 16,200  Level FlightAware ADS-B
02:56PM 46.8988 -124.7330 225° Southwest 252 290 16,200  Level FlightAware ADS-B
02:56PM 46.8676 -124.7650 214° Southwest 253 291 16,200  Level FlightAware ADS-B
02:56PM 46.8577 -124.7740 212° Southwest 252 290 16,200  Level FlightAware ADS-B
02:57PM 46.8532 -124.7780 206° Southwest 253 291 16,200  Level FlightAware ADS-B
02:57PM 46.8483 -124.7810 198° South 254 292 16,200  Level FlightAware ADS-B
02:57PM 46.8415 -124.7820 187° South 257 296 16,200  Level FlightAware ADS-B
02:57PM 46.8370 -124.7820 176° South 260 299 16,200  Level FlightAware ADS-B
02:57PM 46.8270 -124.7790 166° South 261 300 16,200  Level FlightAware ADS-B
02:57PM 46.7921 -124.7640 164° South 256 295 16,200  Level FlightAware ADS-B
02:58PM 46.7595 -124.7500 163° South 209 241 16,200  Level FlightAware ADS-B
02:58PM 46.7321 -124.7380 163° South 195 224 16,200  Level FlightAware ADS-B
02:59PM 46.7065 -124.7260 163° South 191 220 16,200  Level FlightAware ADS-B
02:59PM 46.6903 -124.7190 163° South 190 219 16,200 -360 Level FlightAware ADS-B
03:00PM 46.6642 -124.7070 164° South 184 212 15,900 -900 Descending FlightAware ADS-B
03:00PM 46.6397 -124.6980 166° South 159 183 15,300 -1,860 Descending FlightAware ADS-B
03:01PM 46.6250 -124.6930 168° South 150 173 14,300 -1,560 Descending FlightAware ADS-B
03:01PM 46.5958 -124.6850 170° South 180 207 13,800 -480 Descending FlightAware ADS-B
03:02PM 46.5735 -124.6780 167° South 184 212 13,800 180 Level FlightAware ADS-B
03:02PM 46.5699 -124.6770 164° South 185 213 13,900 1,080 Climbing FlightAware ADS-B
03:02PM 46.5643 -124.6730 152° Southeast 192 221 14,000 1,260 Climbing FlightAware ADS-B
03:02PM 46.5597 -124.6680 139° Southeast 199 229 14,200 1,500 Climbing FlightAware ADS-B
03:02PM 46.5564 -124.6620 130° Southeast 204 235 14,300 1,260 Climbing FlightAware ADS-B
03:02PM 46.5465 -124.6420 123° Southeast 216 249 14,700 1,680 Climbing FlightAware ADS-B
03:03PM 46.5278 -124.5990 122° Southeast 225 259 15,800 1,800 Climbing FlightAware ADS-B
03:03PM 46.5209 -124.5820 120° Southeast 228 262 16,100 780 Climbing FlightAware ADS-B
03:03PM 46.5171 -124.5670 102° East 225 259 16,100  Level FlightAware ADS-B
03:03PM 46.5170 -124.5620 92° East 222 255 16,100  Level FlightAware ADS-B
03:04PM 46.5183 -124.5520 79° East 218 251 16,100 540 Level FlightAware ADS-B
03:04PM 46.5199 -124.5470 65° Northeast 216 249 16,200 720 Climbing FlightAware ADS-B
03:04PM 46.5223 -124.5420 53° Northeast 213 245 16,200  Level FlightAware ADS-B
03:04PM 46.5244 -124.5390 42° Northeast 210 242 16,200  Level FlightAware ADS-B
03:04PM 46.5284 -124.5360 30° Northeast 208 239 16,200  Level FlightAware ADS-B
03:04PM 46.5318 -124.5340 19° North 205 236 16,200  Level FlightAware ADS-B
03:04PM 46.5362 -124.5330 North 203 234 16,200  Level FlightAware ADS-B
03:04PM 46.5394 -124.5320 North 203 234 16,200  Level FlightAware ADS-B
03:04PM 46.5599 -124.5320 North 204 235 16,200  Level FlightAware ADS-B
03:04PM 46.5629 -124.5320 359° North 203 234 16,200  Level FlightAware ADS-B
03:05PM 46.5682 -124.5330 349° North 200 230 16,200  Level FlightAware ADS-B
03:05PM 46.5718 -124.5350 340° North 197 227 16,200  Level FlightAware ADS-B
03:05PM 46.5790 -124.5400 332° Northwest 194 223 16,200  Level FlightAware ADS-B
03:05PM 46.5852 -124.5460 325° Northwest 191 220 16,200  Level FlightAware ADS-B
03:05PM 46.5874 -124.5480 321° Northwest 191 220 16,200 -240 Level FlightAware ADS-B
03:05PM 46.6024 -124.5700 313° West 174 200 16,100  Descending FlightAware ADS-B
03:06PM 46.6150 -124.5900 312° West 164 189 16,200 60 Climbing FlightAware ADS-B
03:06PM 46.6300 -124.6140 312° West 158 182 16,200 -120 Level FlightAware ADS-B
03:07PM 46.6443 -124.6370 313° West 154 177 16,100 -1,200 Descending FlightAware ADS-B
03:07PM 46.6550 -124.6540 313° West 156 180 15,200 -1,920 Descending FlightAware ADS-B
03:07PM 46.6662 -124.6720 313° West 144 166 14,700 -1,500 Descending FlightAware ADS-B
03:08PM 46.6780 -124.6900 313° West 117 135 13,900 -2,340 Descending FlightAware ADS-B
03:08PM 46.6861 -124.7030 312° West 167 192 12,900 -1,200 Descending FlightAware ADS-B
03:09PM 46.6981 -124.7220 313° West 151 174 13,100 300 Climbing FlightAware ADS-B
03:09PM 46.7134 -124.7460 313° West 151 174 13,200 660 Climbing FlightAware ADS-B
03:10PM 46.7282 -124.7680 313° West 182 209 13,800 1,200 Climbing FlightAware ADS-B
03:10PM 46.7436 -124.7920 313° West 198 228 14,300 1,200 Climbing FlightAware ADS-B
03:11PM 46.7723 -124.8360 314° West 217 250 15,200 1,200 Climbing FlightAware ADS-B
03:11PM 46.7868 -124.8620 300° West 205 236 15,700 1,260 Climbing FlightAware ADS-B
03:11PM 46.7873 -124.8670 281° West 206 237 15,800 1,140 Climbing FlightAware ADS-B
03:12PM 46.7812 -124.8890 240° Southwest 213 245 16,100 660 Climbing FlightAware ADS-B
03:12PM 46.7634 -124.8990 227° Southwest 218 251 16,200 240 Climbing FlightAware ADS-B
03:12PM 46.7600 -124.8980 172° South 236 272 16,200 -360 Level FlightAware ADS-B
03:12PM 46.7452 -124.8850 139° Southeast 228 262 16,100 -180 Descending FlightAware ADS-B
03:13PM 46.7312 -124.8630 130° Southeast 206 237 16,100 120 Level FlightAware ADS-B
03:13PM 46.7154 -124.8370 130° Southeast 199 229 16,200 -120 Climbing FlightAware ADS-B
03:13PM 46.6979 -124.8060 129° Southeast 196 226 16,000 -1,020 Descending FlightAware ADS-B
03:14PM 46.6828 -124.7790 129° Southeast 193 222 15,300 -900 Descending FlightAware ADS-B
03:14PM 46.6662 -124.7490 129° Southeast 202 232 15,200 840 Descending FlightAware ADS-B
03:15PM 46.6471 -124.7160 130° Southeast 206 237 16,200 840 Climbing FlightAware ADS-B
03:15PM 46.6289 -124.6860 132° Southeast 197 227 16,100 -120 Descending FlightAware ADS-B
03:16PM 46.6101 -124.6560 133° Southeast 197 227 16,100 -780 Level FlightAware ADS-B
03:16PM 46.5940 -124.6320 135° Southeast 197 227 15,400 -1,440 Descending FlightAware ADS-B
03:17PM 46.5804 -124.6130 137° Southeast 193 222 15,000 -840 Descending FlightAware ADS-B
03:17PM 46.5634 -124.5900 136° Southeast 158 182 14,700 -1,860 Descending FlightAware ADS-B
03:18PM 46.5514 -124.5720 134° Southeast 194 223 13,400 -600 Descending FlightAware ADS-B
03:18PM 46.5313 -124.5390 130° Southeast 207 238 14,200 1,680 Climbing FlightAware ADS-B
03:19PM 46.5022 -124.4870 129° Southeast 215 247 15,600 1,800 Climbing FlightAware ADS-B
03:19PM 46.4941 -124.4720 127° Southeast 221 254 16,000 900 Climbing FlightAware ADS-B
03:20PM 46.4759 -124.4370 126° Southeast 214 246 16,300  Climbing FlightAware ADS-B
03:20PM 46.4604 -124.4060 126° Southeast 211 243 16,000 -240 Descending FlightAware ADS-B
03:21PM 46.4431 -124.3710 126° Southeast 210 242 16,100 60 Climbing FlightAware ADS-B
03:21PM 46.4272 -124.3400 126° Southeast 210 242 16,100  Level FlightAware ADS-B
03:21PM 46.4161 -124.3170 124° Southeast 208 239 16,100 -900 Level FlightAware ADS-B
03:22PM 46.4006 -124.2830 124° Southeast 208 239 15,400 -1,500 Descending FlightAware ADS-B
03:22PM 46.4003 -124.2830 124° Southeast 207 238 15,400 -480 Level FlightAware ADS-B
03:22PM 46.3864 -124.2540 125° Southeast 179 206 15,200 -480 Descending FlightAware ADS-B
03:23PM 46.3807 -124.2420 124° Southeast 157 181 15,100 -2,940 Descending FlightAware ADS-B
03:23PM 46.3725 -124.2230 123° Southeast 219 252 13,700 -3,480 Descending FlightAware ADS-B
03:23PM 46.3682 -124.2130 120° Southeast 224 258 13,600  Descending FlightAware ADS-B
03:23PM 46.3666 -124.2090 116° Southeast 223 257 13,700 3,000 Climbing FlightAware ADS-B
03:23PM 46.3655 -124.2050 109° East 222 255 13,900 3,000 Climbing FlightAware ADS-B
03:23PM 46.3648 -124.2000 102° East 219 252 14,000 2,520 Climbing FlightAware ADS-B
03:23PM 46.3645 -124.1960 94° East 216 249 14,200 2,520 Climbing FlightAware ADS-B
03:23PM 46.3647 -124.1910 84° East 211 243 14,300 2,520 Climbing FlightAware ADS-B
03:23PM 46.3656 -124.1860 73° East 208 239 14,500 1,980 Climbing FlightAware ADS-B
03:23PM 46.3674 -124.1800 62° Northeast 204 235 14,600 1,500 Climbing FlightAware ADS-B
03:23PM 46.3694 -124.1760 54° Northeast 201 231 14,700 2,220 Climbing FlightAware ADS-B
03:24PM 46.3722 -124.1720 43° Northeast 197 227 14,900 2,220 Climbing FlightAware ADS-B
03:24PM 46.3753 -124.1700 31° Northeast 192 221 15,000 1,680 Climbing FlightAware ADS-B
03:24PM 46.3785 -124.1680 19° North 187 215 15,100 1,500 Climbing FlightAware ADS-B
03:24PM 46.3812 -124.1680 North 182 209 15,200 1,680 Climbing FlightAware ADS-B
03:24PM 46.3837 -124.1680 356° North 178 205 15,300 1,500 Climbing FlightAware ADS-B
03:24PM 46.3877 -124.1690 340° North 173 199 15,400 1,980 Climbing FlightAware ADS-B
03:24PM 46.3903 -124.1720 327° Northwest 171 197 15,600 2,220 Climbing FlightAware ADS-B
03:24PM 46.3926 -124.1750 317° Northwest 169 194 15,700 1,680 Climbing FlightAware ADS-B
03:24PM 46.4035 -124.1930 312° West 162 186 16,300 840 Climbing FlightAware ADS-B
03:25PM 46.4107 -124.2040 312° West 167 192 16,200 -420 Descending FlightAware ADS-B
03:25PM 46.4105 -124.2035 313° West 166 191 16,200  Level FlightAware ADS-B
03:25PM 46.4241 -124.2250 313° West 181 208 16,200  Level FlightAware ADS-B
03:25PM 46.4425 -124.2540 313° West 202 232 16,200  Level FlightAware ADS-B
03:26PM 46.4566 -124.2760 313° West 217 250 16,200 -120 Level FlightAware ADS-B
03:26PM 46.4773 -124.3090 312° West 222 255 16,100  Descending FlightAware ADS-B
03:27PM 46.4987 -124.3430 312° West 225 259 16,200 60 Climbing FlightAware ADS-B
03:28PM 46.5282 -124.3900 312° West 223 257 16,200  Level FlightAware ADS-B
03:28PM 46.5505 -124.4250 312° West 221 254 16,200  Level FlightAware ADS-B
03:29PM 46.5720 -124.4590 312° West 232 267 16,200  Level FlightAware ADS-B
03:29PM 46.5940 -124.4940 312° West 233 268 16,200 -540 Level FlightAware ADS-B
03:30PM 46.6158 -124.5290 312° West 234 269 15,700 -1,200 Descending FlightAware ADS-B
03:30PM 46.6391 -124.5660 312° West 232 267 15,000 -600 Descending FlightAware ADS-B
03:31PM 46.6585 -124.5970 312° West 195 224 15,100 -1,560 Climbing FlightAware ADS-B
03:31PM 46.6742 -124.6230 312° West 219 252 13,500 -2,580 Descending FlightAware ADS-B
03:31PM 46.6899 -124.6480 312° West 236 272 13,000 300 Descending FlightAware ADS-B
03:32PM 46.7125 -124.6840 312° West 242 278 13,800 2,340 Climbing FlightAware ADS-B
03:32PM 46.7350 -124.7200 313° West 235 270 15,400 2,220 Climbing FlightAware ADS-B
03:33PM 46.7573 -124.7550 313° West 233 268 16,100 720 Climbing FlightAware ADS-B
03:33PM 46.7815 -124.7930 313° West 234 269 16,200 60 Climbing FlightAware ADS-B
03:34PM 46.8041 -124.8280 313° West 233 268 16,200 -300 Level FlightAware ADS-B
03:35PM 46.8263 -124.8630 313° West 232 267 15,900 -840 Descending FlightAware ADS-B
03:35PM 46.8419 -124.8870 313° West 232 267 15,500 -1,140 Descending FlightAware ADS-B
03:35PM 46.8507 -124.9010 317° Northwest 233 268 15,300 -900 Descending FlightAware ADS-B
03:35PM 46.8581 -124.9080 328° Northwest 233 268 15,200 -300 Descending FlightAware ADS-B
03:35PM 46.8697 -124.9170 334° Northwest 236 272 15,200  Level FlightAware ADS-B
03:36PM 46.9091 -124.9420 337° Northwest 237 273 15,200 -120 Level FlightAware ADS-B
03:37PM 46.9421 -124.9630 337° Northwest 194 223 15,100  Descending FlightAware ADS-B
03:37PM 46.9692 -124.9790 337° Northwest 186 214 15,200 120 Climbing FlightAware ADS-B
03:37PM 46.9755 -124.9830 342° North 186 214 15,200 -420 Level FlightAware ADS-B
03:37PM 46.9819 -124.9840 359° North 188 216 15,100 -600 Descending FlightAware ADS-B
03:38PM 46.9852 -124.9830 North 190 219 15,100 300 Level FlightAware ADS-B
03:38PM 46.9947 -124.9720 35° Northeast 196 226 15,200 180 Climbing FlightAware ADS-B
03:38PM 46.9976 -124.9560 89° East 210 242 15,200  Level FlightAware ADS-B
03:38PM 46.9971 -124.9510 100° East 212 244 15,200  Level FlightAware ADS-B
03:38PM 46.9948 -124.9430 115° Southeast 213 245 15,200  Level FlightAware ADS-B
03:38PM 46.9925 -124.9380 128° Southeast 214 246 15,200  Level FlightAware ADS-B
03:38PM 46.9882 -124.9320 140° Southeast 215 247 15,200  Level FlightAware ADS-B
03:38PM 46.9833 -124.9270 146° Southeast 216 249 15,200  Level FlightAware ADS-B
03:39PM 46.9780 -124.9230 153° Southeast 216 249 15,200  Level FlightAware ADS-B
03:39PM 46.9568 -124.9090 158° South 215 247 15,200  Level FlightAware ADS-B
03:40PM 46.9183 -124.8860 157° South 212 244 15,200  Level FlightAware ADS-B
03:40PM 46.8929 -124.8700 153° Southeast 212 244 15,200  Level FlightAware ADS-B
03:40PM 46.8850 -124.8630 146° Southeast 213 245 15,200  Level FlightAware ADS-B
03:41PM 46.8708 -124.8460 134° Southeast 214 246 15,200  Level FlightAware ADS-B
03:41PM 46.8501 -124.8130 132° Southeast 215 247 15,200 -120 Level FlightAware ADS-B
03:42PM 46.8307 -124.7820 131° Southeast 198 228 15,100  Descending FlightAware ADS-B
03:42PM 46.8125 -124.7520 131° Southeast 193 222 15,200  Climbing FlightAware ADS-B
03:43PM 46.7893 -124.7130 131° Southeast 195 224 15,100 -420 Descending FlightAware ADS-B
03:43PM 46.7744 -124.6890 133° Southeast 208 239 14,800 -120 Descending FlightAware ADS-B
03:44PM 46.7565 -124.6620 135° Southeast 188 216 15,000 -540 Climbing FlightAware ADS-B
03:44PM 46.7365 -124.6350 138° Southeast 185 213 14,300 -840 Descending FlightAware ADS-B
03:44PM 46.7281 -124.6240 137° Southeast 185 213 14,400 840 Climbing FlightAware ADS-B
03:44PM 46.7234 -124.6160 130° Southeast 185 213 14,600 1,620 Climbing FlightAware ADS-B
03:44PM 46.7218 -124.6130 127° Southeast 186 214 14,700 960 Climbing FlightAware ADS-B
03:45PM 46.7178 -124.6040 121° Southeast 191 220 14,800 900 Climbing FlightAware ADS-B
03:45PM 46.7084 -124.5770 117° Southeast 192 221 15,200 480 Climbing FlightAware ADS-B
03:45PM 46.6993 -124.5510 118° Southeast 195 224 15,200 -120 Level FlightAware ADS-B
03:46PM 46.6853 -124.5140 119° Southeast 198 228 15,100 -600 Descending FlightAware ADS-B
03:46PM 46.6746 -124.4880 122° Southeast 215 247 14,700  Descending FlightAware ADS-B
03:47PM 46.6641 -124.4640 123° Southeast 185 213 15,100 -420 Climbing FlightAware ADS-B
03:47PM 46.6523 -124.4380 125° Southeast 199 229 14,400 -720 Descending FlightAware ADS-B
03:47PM 46.6457 -124.4250 127° Southeast 199 229 14,700 1,560 Climbing FlightAware ADS-B
03:47PM 46.6417 -124.4180 133° Southeast 198 228 14,900 1,560 Climbing FlightAware ADS-B
03:47PM 46.6354 -124.4110 147° Southeast 194 223 15,100 1,380 Climbing FlightAware ADS-B
03:48PM 46.6323 -124.4100 159° South 189 217 15,200 660 Climbing FlightAware ADS-B
03:48PM 46.6273 -124.4080 173° South 188 216 15,200  Level FlightAware ADS-B
03:48PM 46.6222 -124.4100 185° South 185 213 15,200  Level FlightAware ADS-B
03:48PM 46.6194 -124.4110 205° Southwest 177 204 15,200  Level FlightAware ADS-B
03:48PM 46.6148 -124.4190 231° Southwest 169 194 15,200 -480 Level FlightAware ADS-B
03:48PM 46.6132 -124.4220 254° West 166 191 15,100 -900 Descending FlightAware ADS-B
03:48PM 46.6118 -124.4250 265° West 164 189 15,100  Level FlightAware ADS-B
03:48PM 46.6142 -124.4300 281° West 162 186 15,100 840 Level FlightAware ADS-B
03:48PM 46.6145 -124.4340 293° West 162 186 15,200  Climbing FlightAware ADS-B
03:48PM 46.6175 -124.4400 302° West 161 185 15,100 -540 Descending FlightAware ADS-B
03:48PM 46.6197 -124.4450 309° West 161 185 15,100  Level FlightAware ADS-B
03:49PM 46.6244 -124.4510 320° Northwest 160 184 15,100  Level FlightAware ADS-B
03:49PM 46.6283 -124.4540 327° Northwest 161 185 15,100  Level FlightAware ADS-B
03:49PM 46.6339 -124.4590 335° Northwest 162 186 15,100 240 Level FlightAware ADS-B
03:49PM 46.6434 -124.4640 340° North 164 189 15,200  Climbing FlightAware ADS-B
03:49PM 46.6538 -124.4690 345° North 162 186 15,100 -300 Descending FlightAware ADS-B
03:50PM 46.6726 -124.4760 347° North 165 190 15,000 -720 Descending FlightAware ADS-B
03:50PM 46.6925 -124.4820 348° North 189 217 14,500 -180 Descending FlightAware ADS-B
03:50PM 46.7070 -124.4860 350° North 160 184 14,900 -1,320 Climbing FlightAware ADS-B
03:51PM 46.7226 -124.4900 351° North 195 224 13,700 -2,100 Descending FlightAware ADS-B
03:51PM 46.7341 -124.4920 353° North 182 209 13,800 180 Climbing FlightAware ADS-B
03:51PM 46.7483 -124.4960 339° North 187 215 13,800 240 Level FlightAware ADS-B
03:51PM 46.7523 -124.5000 321° Northwest 186 214 13,900 1,500 Climbing FlightAware ADS-B
03:51PM 46.7559 -124.5060 303° West 184 212 14,100 1,500 Climbing FlightAware ADS-B
03:52PM 46.7574 -124.5130 284° West 181 208 14,200 1,200 Climbing FlightAware ADS-B
03:52PM 46.7575 -124.5170 272° West 180 207 14,300 1,320 Climbing FlightAware ADS-B
03:52PM 46.7568 -124.5240 259° West 180 207 14,400 1,320 Climbing FlightAware ADS-B
03:52PM 46.7553 -124.5280 244° Southwest 182 209 14,500 1,500 Climbing FlightAware ADS-B
03:52PM 46.7533 -124.5320 232° Southwest 184 212 14,600 720 Climbing FlightAware ADS-B
03:52PM 46.7511 -124.5350 220° Southwest 187 215 14,600 660 Level FlightAware ADS-B
03:52PM 46.7464 -124.5390 208° Southwest 192 221 14,700 720 Climbing FlightAware ADS-B
03:52PM 46.7438 -124.5400 197° South 195 224 14,700  Level FlightAware ADS-B
03:52PM 46.7410 -124.5400 185° South 200 230 14,700 660 Level FlightAware ADS-B
03:52PM 46.7354 -124.5390 172° South 205 236 14,800 1,080 Climbing FlightAware ADS-B
03:52PM 46.7303 -124.5370 156° South 210 242 14,900 540 Climbing FlightAware ADS-B
03:52PM 46.7265 -124.5330 142° Southeast 213 245 14,900 600 Level FlightAware ADS-B
03:52PM 46.7233 -124.5280 131° Southeast 214 246 15,000 720 Climbing FlightAware ADS-B
03:52PM 46.7212 -124.5240 126° Southeast 215 247 15,000 900 Level FlightAware ADS-B
03:53PM 46.7079 -124.4960 124° Southeast 214 246 15,400 780 Climbing FlightAware ADS-B
03:53PM 46.6906 -124.4590 123° Southeast 239 275 15,700 660 Climbing FlightAware ADS-B
03:54PM 46.6760 -124.4240 120° Southeast 263 303 16,000 1,500 Climbing FlightAware ADS-B
03:54PM 46.6572 -124.3770 121° Southeast 261 300 17,100 1,680 Climbing FlightAware ADS-B
03:55PM 46.6409 -124.3380 122° Southeast 272 313 17,600 900 Climbing FlightAware ADS-B
03:55PM 46.6358 -124.3280 126° Southeast 276 318 17,600 420 Level FlightAware ADS-B
03:55PM 46.6310 -124.3200 136° Southeast 282 325 17,700 600 Climbing FlightAware ADS-B
03:55PM 46.6268 -124.3160 144° Southeast 289 333 17,700  Level FlightAware ADS-B
03:55PM 46.6223 -124.3120 151° Southeast 295 339 17,700  Level FlightAware ADS-B
03:55PM 46.6070 -124.3000 150° Southeast 315 362 17,700 960 Level FlightAware ADS-B
03:56PM 46.5908 -124.2770 129° Southeast 326 375 18,200 1,980 Climbing FlightAware ADS-B
03:56PM 46.5825 -124.2590 122° Southeast 330 380 18,600 2,640 Climbing FlightAware ADS-B
03:56PM 46.5764 -124.2370 105° East 334 384 19,000 2,460 Climbing FlightAware ADS-B
03:56PM 46.5750 -124.2190 94° East 335 386 19,300 2,160 Climbing FlightAware ADS-B
03:56PM 46.5752 -124.2120 87° East 334 384 19,400 1,980 Climbing FlightAware ADS-B
03:56PM 46.5759 -124.2050 82° East 334 384 19,500 1,980 Climbing FlightAware ADS-B
03:56PM 46.5782 -124.1920 73° East 335 386 19,700 1,740 Climbing FlightAware ADS-B
03:56PM 46.5819 -124.1781 67° East 347 399 20,000 540 Climbing FlightAware ADS-B
03:57PM 46.5979 -124.1250 66° East 377 434 20,000  Level FlightAware ADS-B
03:57PM 46.6130 -124.0776 65° Northeast 409 471 20,000  Level FlightAware ADS-B
03:57PM 46.6216 -124.0510 65° Northeast 419 482 20,000  Level FlightAware ADS-B
03:58PM 46.6461 -123.9730 65° Northeast 423 487 20,000  Level FlightAware ADS-B
03:58PM 46.6708 -123.8950 66° East 424 488 20,000  Level FlightAware ADS-B
03:58PM 46.6761 -123.8775 66° East 423 487 20,000  Level FlightAware ADS-B (CYVR)
03:59PM 46.6963 -123.8120 66° East 423 487 20,000  Level FlightAware ADS-B
03:59PM 46.7235 -123.7240 66° East 423 487 20,000  Level FlightAware ADS-B
04:00PM 46.7480 -123.6440 66° East 424 488 20,000  Level FlightAware ADS-B
04:00PM 46.7515 -123.6324 66° East 424 488 20,000  Level FlightAware ADS-B (CYVR)
04:00PM 46.7724 -123.5640 66° East 422 486 20,000  Level FlightAware ADS-B
04:01PM 46.7812 -123.5352 66° East 419 482 20,000  Level FlightAware ADS-B (CYVR)
04:01PM 46.7958 -123.4870 66° East 418 481 20,000  Level FlightAware ADS-B
04:01PM 46.8209 -123.4040 66° East 419 482 20,000  Level FlightAware ADS-B
04:02PM 46.8455 -123.3230 66° East 420 483 20,000  Level FlightAware ADS-B
04:02PM 46.8700 -123.2420 66° East 419 482 20,000 -720 Level FlightAware ADS-B
04:03PM 46.8936 -123.1630 66° East 405 466 19,300 -1,680 Descending FlightAware ADS-B
04:03PM 46.9159 -123.0890 66° East 396 456 18,300 -1,740 Descending FlightAware ADS-B
04:04PM 46.9378 -123.0160 67° East 389 448 17,600 -1,020 Descending FlightAware ADS-B
04:04PM 46.9570 -122.9507 67° East 364 419 17,300 -600 Descending FlightAware ADS-B (CYVR)
04:04PM 46.9584 -122.9460 66° East 363 418 17,300 -600 Level FlightAware ADS-B
04:05PM 46.9651 -122.9270 61° Northeast 357 411 17,200 -540 Descending FlightAware ADS-B
04:05PM 46.9682 -122.9190 58° Northeast 354 407 17,200 -480 Level FlightAware ADS-B
04:05PM 46.9780 -122.8990 53° Northeast 351 404 17,100 -1,200 Descending FlightAware ADS-B
04:05PM 46.9823 -122.8916 50° Northeast 350 403 16,900 -1,740 Descending FlightAware ADS-B (CYVR)
04:05PM 46.9863 -122.8850 48° Northeast 348 400 16,900 -1,200 Level FlightAware ADS-B
04:05PM 46.9930 -122.8750 45° Northeast 347 399 16,700 -1,500 Descending FlightAware ADS-B
04:06PM 47.0296 -122.8280 41° Northeast 342 394 16,000 -1,440 Descending FlightAware ADS-B
04:06PM 47.0654 -122.7830 41° Northeast 340 391 15,300 -1,380 Descending FlightAware ADS-B
04:07PM 47.1011 -122.7370 41° Northeast 339 390 14,600 -1,380 Descending FlightAware ADS-B
04:07PM 47.1366 -122.6910 41° Northeast 337 388 13,900 -1,680 Descending FlightAware ADS-B
04:07PM 47.1408 -122.6861 41° Northeast 336 387 13,600 -1,440 Descending FlightAware ADS-B (CYVR)
04:08PM 47.1716 -122.6470 41° Northeast 334 384 13,200 -1,200 Descending FlightAware ADS-B
04:08PM 47.1785 -122.6376 41° Northeast 331 381 13,000 -1,440 Descending FlightAware ADS-B (CYVR)
04:08PM 47.2064 -122.6020 41° Northeast 325 374 12,500 -1,380 Descending FlightAware ADS-B
04:08PM 47.2168 -122.5885 41° Northeast 323 372 12,300 -1,500 Descending FlightAware ADS-B (CYVR)
04:09PM 47.2420 -122.5560 41° Northeast 320 368 11,700 -1,560 Descending FlightAware ADS-B
04:09PM 47.2755 -122.5130 41° Northeast 303 349 10,900 -1,740 Descending FlightAware ADS-B
04:10PM 47.3040 -122.4760 41° Northeast 282 325 10,000 -1,980 Descending FlightAware ADS-B
04:10PM 47.3096 -122.4700 36° Northeast 281 323 9,800 -2,700 Descending FlightAware ADS-B
04:10PM 47.3133 -122.4660 31° Northeast 281 323 9,600 -3,000 Descending FlightAware ADS-B
04:10PM 47.3185 -122.4630 21° North 280 322 9,400 -2,280 Descending FlightAware ADS-B
04:10PM 47.3235 -122.4610 14° North 278 320 9,300 -2,040 Descending FlightAware ADS-B
04:10PM 47.3306 -122.4590 North 275 316 9,100 -2,040 Descending FlightAware ADS-B
04:10PM 47.3461 -122.4580 North 278 320 8,700 -1,800 Descending FlightAware ADS-B
04:10PM 47.3655 -122.4580 North 279 321 8,300 -1,440 Descending FlightAware ADS-B
04:11PM 47.3849 -122.4580 North 273 314 8,000 -1,980 Descending FlightAware ADS-B
04:11PM 47.4047 -122.4570 North 271 312 7,300 -2,760 Descending FlightAware ADS-B
04:11PM 47.4122 -122.4570 360° North 269 310 7,000 -2,340 Descending FlightAware ADS-B
04:11PM 47.4306 -122.4580 360° North 262 302 6,500 -2,040 Descending FlightAware ADS-B
04:12PM 47.4489 -122.4580 359° North 258 297 6,000 -2,160 Descending FlightAware ADS-B
04:12PM 47.4670 -122.4580 359° North 254 292 5,400 -2,100 Descending FlightAware ADS-B
04:12PM 47.4827 -122.4590 359° North 252 290 5,000 -2,160 Descending FlightAware ADS-B
04:12PM 47.5002 -122.4590 359° North 252 290 4,400 -2,160 Descending FlightAware ADS-B
04:13PM 47.5188 -122.4600 359° North 251 289 3,900 -1,920 Descending FlightAware ADS-B
04:13PM 47.5366 -122.4600 359° North 248 285 3,400 -1,740 Descending FlightAware ADS-B
04:13PM 47.5502 -122.4610 357° North 246 283 3,100 -2,040 Descending FlightAware ADS-B
04:13PM 47.5545 -122.4620 353° North 245 282 2,900 -1,800 Descending FlightAware ADS-B
04:13PM 47.5613 -122.4640 343° North 242 278 2,800 -1,320 Descending FlightAware ADS-B
04:13PM 47.5684 -122.4690 334° Northwest 242 278 2,600 -1,200 Descending FlightAware ADS-B
04:13PM 47.5823 -122.4800 330° Northwest 240 276 2,400 -600 Descending FlightAware ADS-B
04:14PM 47.6005 -122.4960 330° Northwest 227 261 2,300 -180 Descending FlightAware ADS-B
04:14PM 47.6142 -122.5080 330° Northwest 229 264 2,300  Level FlightAware ADS-B
04:14PM 47.6270 -122.5190 331° Northwest 231 266 2,300  Level FlightAware ADS-B
04:14PM 47.6310 -122.5220 335° Northwest 230 265 2,300  Level FlightAware ADS-B
04:14PM 47.6342 -122.5230 340° North 228 262 2,300 720 Level FlightAware ADS-B
04:15PM 47.6399 -122.5250 354° North 224 258 2,400  Climbing FlightAware ADS-B
04:15PM 47.6436 -122.5250 North 220 253 2,300 -720 Descending FlightAware ADS-B
04:15PM 47.6483 -122.5230 15° North 215 247 2,300  Level FlightAware ADS-B
04:15PM 47.6511 -122.5210 24° Northeast 211 243 2,300  Level FlightAware ADS-B
04:15PM 47.6549 -122.5180 38° Northeast 205 236 2,300  Level FlightAware ADS-B
04:15PM 47.6579 -122.5130 48° Northeast 199 229 2,300  Level FlightAware ADS-B
04:15PM 47.6668 -122.4940 56° Northeast 195 224 2,300  Level FlightAware ADS-B
04:15PM 47.6754 -122.4760 56° Northeast 195 224 2,300 120 Level FlightAware ADS-B
04:16PM 47.6797 -122.4490 80° East 188 216 2,400  Climbing FlightAware ADS-B
04:16PM 47.6653 -122.4180 135° Southeast 182 209 2,300 -180 Descending FlightAware ADS-B
04:16PM 47.6594 -122.4120 149° Southeast 176 203 2,300  Level FlightAware ADS-B
04:17PM 47.6479 -122.4030 150° Southeast 160 184 2,300  Level FlightAware ADS-B
04:17PM 47.6396 -122.3950 148° Southeast 157 181 2,300  Level FlightAware ADS-B
04:17PM 47.6364 -122.3920 149° Southeast 157 181 2,300  Level FlightAware ADS-B
04:17PM 47.6331 -122.3890 150° Southeast 159 183 2,300 -840 Level FlightAware ADS-B
04:17PM 47.6265 -122.3840 151° Southeast 157 181 2,100 -900 Descending FlightAware ADS-B
04:18PM 47.6158 -122.3750 151° Southeast 150 173 1,900 -720 Descending FlightAware ADS-B
04:18PM 47.6051 -122.3660 151° Southeast 150 173 1,700 -720 Descending FlightAware ADS-B
04:18PM 47.5953 -122.3580 150° Southeast 148 170 1,500 -960 Descending FlightAware ADS-B
04:19PM 47.5647 -122.3333 150° Southeast 152 175 600 -960 Descending Seattle Center
04:19PM 47.5514 -122.3217 149° Southeast 146 168 300 -300 Descending Seattle Center
04:20PM 47.5322 -122.2931 135° Southeast 152 175 300  Level Seattle Center